Time;durP1;ratioP1;P1;durP2;ratioP2;P2;SDS_P1;SDS_P2;PMS_P1;PMS_P2;Temp;Humidity;BMP_temperature;BMP_pressure;BME280_temperature;BME280_humidity;BME280_pressure;Samples;Min_cycle;Max_cycle;Signal;HPM_P1;HPM_P2
2021/01/11 00:00:36;;;;;;;3.08;1.30;;;25.90;58.00;;;;;;4126726;28;20120;-66
2021/01/11 00:02:38;;;;;;;2.58;1.58;;;25.90;58.00;;;;;;4122000;28;21831;-65
2021/01/11 00:04:41;;;;;;;2.58;1.48;;;25.90;57.90;;;;;;4121453;28;20182;-66
2021/01/11 00:06:44;;;;;;;3.67;1.55;;;25.90;57.90;;;;;;4123004;28;20495;-66
2021/01/11 00:08:45;;;;;;;;;;;26.00;58.00;;;;;;4124270;28;20502;-67
2021/01/11 00:10:48;;;;;;;4.05;1.30;;;26.00;58.00;;;;;;4125161;28;19932;-67
2021/01/11 00:12:50;;;;;;;3.80;1.15;;;26.00;57.90;;;;;;4121426;28;20275;-67
2021/01/11 00:14:52;;;;;;;2.63;1.50;;;26.00;57.90;;;;;;4126323;28;20029;-68
2021/01/11 00:16:54;;;;;;;2.28;1.30;;;26.00;57.80;;;;;;4137194;28;20449;-69
2021/01/11 00:18:56;;;;;;;2.47;1.30;;;26.00;57.80;;;;;;4125455;28;20025;-68
2021/01/11 00:20:58;;;;;;;2.03;1.20;;;26.00;57.70;;;;;;4128665;28;20136;-67
2021/01/11 00:23:00;;;;;;;3.83;1.30;;;26.00;57.70;;;;;;4123515;28;20053;-67
2021/01/11 00:25:07;;;;;;;1.35;1.05;;;26.00;57.60;;;;;;4123934;28;20143;-68
2021/01/11 00:27:09;;;;;;;2.10;1.10;;;26.10;57.60;;;;;;4126175;28;20029;-68
2021/01/11 00:29:11;;;;;;;1.95;1.00;;;26.10;57.80;;;;;;4126950;28;20049;-67
2021/01/11 00:31:20;;;;;;;2.75;1.25;;;26.10;57.70;;;;;;4126767;28;20064;-67
2021/01/11 00:33:22;;;;;;;1.73;1.05;;;26.10;57.70;;;;;;4125915;28;20573;-68
2021/01/11 00:35:24;;;;;;;2.67;1.33;;;26.10;57.70;;;;;;4127252;28;20119;-69
2021/01/11 00:37:27;;;;;;;3.38;1.13;;;26.10;57.70;;;;;;4126927;28;20600;-68
2021/01/11 00:39:29;;;;;;;3.17;1.30;;;26.10;57.70;;;;;;4126743;28;20462;-69
2021/01/11 00:41:31;;;;;;;1.80;1.05;;;26.10;57.60;;;;;;4125452;28;20096;-69
2021/01/11 00:43:33;;;;;;;1.55;0.82;;;26.10;57.60;;;;;;4126253;28;20049;-69
2021/01/11 00:45:35;;;;;;;2.05;1.10;;;26.10;57.60;;;;;;4127022;28;20040;-69
2021/01/11 00:47:42;;;;;;;1.70;1.00;;;26.20;57.80;;;;;;4123814;28;20050;-70
2021/01/11 00:49:44;;;;;;;2.20;1.10;;;26.20;57.70;;;;;;4122708;28;20033;-67
2021/01/11 00:51:46;;;;;;;2.38;1.00;;;26.20;57.60;;;;;;4127860;28;20036;-67
2021/01/11 00:53:49;;;;;;;1.42;1.00;;;26.20;57.70;;;;;;4121035;28;20159;-67
2021/01/11 00:55:51;;;;;;;1.42;0.93;;;26.20;57.60;;;;;;4122374;28;21228;-68
2021/01/11 00:57:53;;;;;;;2.33;1.00;;;26.20;57.60;;;;;;4126183;28;20356;-69
2021/01/11 00:59:55;;;;;;;1.83;1.00;;;26.20;57.60;;;;;;4127107;28;20025;-68
2021/01/11 01:01:57;;;;;;;1.45;1.10;;;26.20;57.60;;;;;;4124479;28;20123;-68
2021/01/11 01:03:59;;;;;;;1.63;1.00;;;;;;;;;;4124637;28;20037;-68
2021/01/11 01:06:01;;;;;;;2.97;1.23;;;;;;;;;;4126589;28;20033;-67
2021/01/11 01:08:04;;;;;;;1.48;0.90;;;26.30;57.60;;;;;;4125269;28;20585;-69
2021/01/11 01:10:07;;;;;;;1.73;1.00;;;26.30;57.40;;;;;;4126193;28;20423;-70
2021/01/11 01:12:09;;;;;;;1.88;1.00;;;26.30;57.60;;;;;;4124086;28;20135;-69
2021/01/11 01:14:11;;;;;;;1.53;0.97;;;26.30;57.50;;;;;;4122742;28;20033;-69
2021/01/11 01:16:13;;;;;;;1.43;0.90;;;26.30;57.50;;;;;;4125997;28;20649;-68
2021/01/11 01:18:15;;;;;;;1.48;1.00;;;26.30;57.50;;;;;;4127394;28;20148;-68
2021/01/11 01:20:18;;;;;;;2.53;0.90;;;26.30;57.40;;;;;;4123505;28;20141;-68
2021/01/11 01:22:20;;;;;;;1.15;0.85;;;26.30;57.50;;;;;;4127628;28;20060;-69
2021/01/11 01:24:22;;;;;;;1.70;1.00;;;26.40;57.50;;;;;;4126452;28;20072;-68
2021/01/11 01:26:25;;;;;;;1.60;1.17;;;26.40;57.50;;;;;;4128084;28;20037;-68
2021/01/11 01:28:27;;;;;;;2.17;0.80;;;26.40;57.40;;;;;;4127835;28;20056;-68
2021/01/11 01:30:29;;;;;;;1.60;1.02;;;26.40;57.40;;;;;;4129234;28;20041;-68
2021/01/11 01:32:31;;;;;;;1.10;0.80;;;26.40;57.40;;;;;;4128894;28;20037;-69
2021/01/11 01:34:33;;;;;;;2.17;0.90;;;26.40;57.30;;;;;;4129174;28;20077;-69
2021/01/11 01:36:35;;;;;;;1.65;0.90;;;26.50;57.40;;;;;;4130968;28;20940;-67
2021/01/11 01:38:37;;;;;;;3.17;1.15;;;26.50;57.40;;;;;;4126996;28;20049;-68
2021/01/11 01:40:44;;;;;;;2.88;1.20;;;26.50;57.40;;;;;;4127249;28;20100;-66
2021/01/11 01:42:47;;;;;;;1.42;0.88;;;26.50;57.30;;;;;;4128861;28;20479;-68
2021/01/11 01:44:49;;;;;;;1.27;0.98;;;26.50;57.30;;;;;;4129048;28;20050;-67
2021/01/11 01:46:51;;;;;;;1.45;0.90;;;26.50;57.20;;;;;;4126744;28;20053;-68
2021/01/11 01:48:54;;;;;;;2.03;1.20;;;26.60;57.30;;;;;;4128559;28;20960;-69
2021/01/11 01:50:56;;;;;;;1.98;1.02;;;26.50;57.20;;;;;;4127436;28;20788;-70
2021/01/11 01:52:58;;;;;;;4.60;1.08;;;26.60;57.30;;;;;;4122891;28;20093;-64
2021/01/11 01:55:00;;;;;;;2.43;1.10;;;26.60;58.40;;;;;;4127884;28;20407;-63
2021/01/11 01:57:04;;;;;;;3.28;1.05;;;26.50;57.40;;;;;;4128020;28;20068;-65
2021/01/11 01:59:07;;;;;;;5.15;0.90;;;26.50;56.40;;;;;;4126866;28;20708;-64
2021/01/11 02:01:10;;;;;;;1.02;0.68;;;26.30;55.30;;;;;;4125811;28;20289;-64
2021/01/11 02:03:12;;;;;;;1.83;0.93;;;26.20;54.80;;;;;;4127029;28;20044;-63
2021/01/11 02:05:14;;;;;;;1.33;0.77;;;26.00;54.60;;;;;;4127306;28;20411;-64
2021/01/11 02:07:43;;;;;;;1.95;1.00;;;25.90;54.00;;;;;;4125328;28;20133;-63
2021/01/11 02:09:48;;;;;;;1.27;0.80;;;;;;;;;;4127905;28;20493;-63
2021/01/11 02:12:02;;;;;;;2.05;0.80;;;25.80;54.00;;;;;;4127036;28;20469;-65
2021/01/11 02:14:10;;;;;;;1.42;0.90;;;;;;;;;;4126179;28;20033;-65
2021/01/11 02:16:30;;;;;;;1.83;0.70;;;;;;;;;;4125238;28;20052;-66
2021/01/11 02:18:50;;;;;;;2.17;0.93;;;25.60;53.10;;;;;;4126766;28;20080;-66
2021/01/11 02:21:15;;;;;;;1.77;0.75;;;25.30;53.20;;;;;;4128191;28;20041;-64
2021/01/11 02:23:26;;;;;;;1.27;0.80;;;25.20;53.00;;;;;;4126507;28;20479;-63
2021/01/11 02:25:43;;;;;;;1.83;0.82;;;25.10;53.20;;;;;;4127597;28;20061;-65
2021/01/11 02:27:57;;;;;;;3.58;0.95;;;25.00;53.10;;;;;;4128840;28;20029;-63
2021/01/11 02:30:06;;;;;;;3.92;1.02;;;24.90;52.60;;;;;;4125392;28;20034;-62
2021/01/11 02:32:10;;;;;;;1.48;1.00;;;24.80;52.30;;;;;;4126070;28;20037;-64
2021/01/11 02:34:14;;;;;;;4.35;1.05;;;24.80;52.90;;;;;;4123582;28;20059;-63
2021/01/11 02:36:21;;;;;;;1.95;1.20;;;24.70;52.90;;;;;;4128731;28;20483;-65
2021/01/11 02:38:23;;;;;;;4.18;1.10;;;24.70;52.90;;;;;;4123636;28;20196;-64
2021/01/11 02:40:26;;;;;;;1.58;1.10;;;24.60;53.00;;;;;;4126723;28;20159;-63
2021/01/11 02:42:28;;;;;;;1.67;0.93;;;24.50;53.30;;;;;;4126799;28;20057;-64
2021/01/11 02:44:30;;;;;;;1.45;1.00;;;24.40;53.30;;;;;;4126596;28;20629;-65
2021/01/11 02:46:32;;;;;;;1.15;0.95;;;;;;;;;;4125958;28;20471;-66
2021/01/11 02:48:41;;;;;;;1.20;1.00;;;;;;;;;;4125608;28;20480;-62
2021/01/11 02:50:55;;;;;;;1.23;0.98;;;;;;;;;;4131228;28;20053;-65
2021/01/11 02:53:07;;;;;;;1.42;1.00;;;;;;;;;;4134147;28;20444;-63
2021/01/11 02:55:24;;;;;;;1.63;1.17;;;24.40;53.50;;;;;;4131005;28;20029;-63
2021/01/11 02:57:40;;;;;;;1.58;1.13;;;24.10;53.60;;;;;;4133594;28;20049;-64
2021/01/11 02:59:51;;;;;;;1.50;1.10;;;24.00;53.70;;;;;;4132468;28;20077;-65
2021/01/11 03:02:16;;;;;;;2.78;1.23;;;;;;;;;;4128838;28;20454;-64
2021/01/11 03:04:22;;;;;;;1.88;1.15;;;;;;;;;;4120284;28;20037;-64
2021/01/11 03:06:29;;;;;;;5.28;1.40;;;;;;;;;;4129817;28;20072;-62
2021/01/11 03:08:31;;;;;;;2.58;1.55;;;;;;;;;;4127402;28;20131;-65
2021/01/11 03:10:33;;;;;;;2.63;1.02;;;;;;;;;;4123846;28;20265;-63
2021/01/11 03:12:35;;;;;;;1.70;1.13;;;;;;;;;;4128891;28;20402;-62
2021/01/11 03:14:38;;;;;;;1.35;1.00;;;;;;;;;;4123727;28;21489;-62
2021/01/11 03:16:40;;;;;;;1.33;0.90;;;;;;;;;;4123247;28;20041;-65
2021/01/11 03:18:42;;;;;;;0.90;0.90;;;;;;;;;;4126446;28;20480;-66
2021/01/11 03:20:44;;;;;;;1.27;1.00;;;24.00;53.80;;;;;;4122232;28;20380;-64
2021/01/11 03:22:46;;;;;;;1.27;1.00;;;23.50;54.00;;;;;;4123974;28;20604;-62
2021/01/11 03:24:49;;;;;;;1.13;1.02;;;23.50;54.00;;;;;;4126875;28;20533;-62
2021/01/11 03:26:51;;;;;;;2.08;1.08;;;23.50;53.90;;;;;;4125393;28;20056;-61
2021/01/11 03:28:54;;;;;;;1.25;0.93;;;23.40;54.00;;;;;;4126692;28;20046;-62
2021/01/11 03:30:56;;;;;;;0.88;0.88;;;23.40;54.70;;;;;;4121649;28;20098;-64
2021/01/11 03:32:58;;;;;;;1.38;1.00;;;;;;;;;;4127198;28;20998;-63
2021/01/11 03:35:00;;;;;;;0.95;0.70;;;;;;;;;;4124341;28;20307;-63
2021/01/11 03:37:02;;;;;;;1.70;1.10;;;;;;;;;;4126519;28;20443;-63
2021/01/11 03:39:05;;;;;;;1.50;0.93;;;;;;;;;;4125075;28;20112;-61
2021/01/11 03:41:11;;;;;;;3.47;1.15;;;23.40;54.20;;;;;;4122681;28;20037;-60
2021/01/11 03:43:13;;;;;;;1.10;1.00;;;23.20;54.40;;;;;;4120524;28;20079;-61
2021/01/11 03:45:15;;;;;;;1.27;1.00;;;23.20;54.40;;;;;;4125251;28;20053;-62
2021/01/11 03:47:19;;;;;;;0.88;0.88;;;23.10;54.50;;;;;;4121901;28;20042;-69
2021/01/11 03:49:21;;;;;;;1.20;0.90;;;;;;;;;;4124874;28;20410;-62
2021/01/11 03:51:24;;;;;;;1.05;0.82;;;;;;;;;;4125511;28;20335;-61
2021/01/11 03:53:26;;;;;;;1.25;1.13;;;;;;;;;;4125220;28;20428;-61
2021/01/11 03:55:27;;;;;;;2.92;1.15;;;;;;;;;;4124856;28;20647;-61
2021/01/11 03:57:30;;;;;;;1.65;0.93;;;;;;;;;;4125051;28;20487;-62
2021/01/11 03:59:32;;;;;;;1.27;0.88;;;;;;;;;;4122356;28;20044;-60
2021/01/11 04:01:38;;;;;;;5.25;1.30;;;;;;;;;;4122422;28;20053;-63
2021/01/11 04:03:40;;;;;;;3.50;1.10;;;;;;;;;;4128016;28;20033;-63
2021/01/11 04:05:46;;;;;;;2.65;1.10;;;23.00;54.60;;;;;;4124167;28;20100;-61
2021/01/11 04:07:48;;;;;;;10.82;1.30;;;23.10;58.10;;;;;;4124053;28;20072;-56
2021/01/11 04:09:50;;;;;;;3.75;1.25;;;23.20;58.00;;;;;;4126349;28;20255;-62
2021/01/11 04:11:52;;;;;;;8.27;1.25;;;23.40;58.90;;;;;;4126540;28;20037;-67
2021/01/11 04:13:55;;;;;;;8.93;1.60;;;23.50;59.60;;;;;;4121770;28;20037;-61
2021/01/11 04:15:57;;;;;;;7.97;1.35;;;23.70;58.80;;;;;;4122690;28;20144;-62
2021/01/11 04:18:00;;;;;;;4.38;1.23;;;23.70;58.70;;;;;;4123808;28;20033;-61
2021/01/11 04:20:03;;;;;;;2.50;0.98;;;23.90;58.70;;;;;;4124473;28;20526;-65
2021/01/11 04:22:06;;;;;;;2.20;0.90;;;24.00;58.50;;;;;;4122941;28;20037;-61
2021/01/11 04:24:08;;;;;;;6.88;1.15;;;24.10;58.80;;;;;;4123234;28;20127;-66
2021/01/11 04:26:11;;;;;;;4.88;0.88;;;24.20;58.90;;;;;;4123730;28;20037;-61
2021/01/11 04:28:13;;;;;;;2.73;1.03;;;24.30;58.80;;;;;;4124888;28;20042;-61
2021/01/11 04:30:15;;;;;;;2.85;0.98;;;24.40;58.90;;;;;;4127393;28;20029;-60
2021/01/11 04:32:17;;;;;;;2.77;0.97;;;24.60;58.80;;;;;;4124937;28;21251;-59
2021/01/11 04:34:19;;;;;;;2.25;0.75;;;24.60;58.60;;;;;;4123395;28;20259;-62
2021/01/11 04:36:21;;;;;;;5.38;0.93;;;24.80;58.60;;;;;;4126306;28;20053;-62
2021/01/11 04:38:24;;;;;;;1.33;0.70;;;24.80;58.60;;;;;;4125446;28;20912;-62
2021/01/11 04:40:26;;;;;;;1.80;1.00;;;25.00;58.60;;;;;;4124120;28;20462;-60
2021/01/11 04:42:40;;;;;;;4.30;0.70;;;25.10;58.50;;;;;;4127609;28;20459;-64
2021/01/11 04:44:44;;;;;;;7.90;0.90;;;25.10;58.40;;;;;;4123929;28;20046;-63
2021/01/11 04:46:47;;;;;;;3.05;0.80;;;25.30;58.50;;;;;;4120307;28;20375;-61
2021/01/11 04:48:48;;;;;;;;;;;;;;;;;;4125625;28;20157;-60
2021/01/11 04:50:50;;;;;;;5.80;1.00;;;;;;;;;;4125810;28;19979;-60
2021/01/11 04:52:54;;;;;;;2.22;0.77;;;25.40;58.40;;;;;;4121815;28;20037;-60
2021/01/11 04:54:56;;;;;;;;;;;25.70;58.20;;;;;;4127213;28;20043;-61
2021/01/11 04:57:02;;;;;;;5.03;1.10;;;25.80;58.00;;;;;;4122636;28;20015;-60
2021/01/11 04:59:06;;;;;;;3.60;1.05;;;25.90;57.90;;;;;;4125038;28;20046;-61
2021/01/11 05:01:13;;;;;;;3.08;1.00;;;26.00;57.80;;;;;;4121954;28;20053;-62
2021/01/11 05:03:16;;;;;;;5.13;0.93;;;26.10;57.70;;;;;;4123597;28;20466;-61
2021/01/11 05:05:18;;;;;;;1.20;0.82;;;26.20;57.60;;;;;;4125048;28;20040;-60
2021/01/11 05:07:23;;;;;;;1.98;0.98;;;26.30;57.50;;;;;;4123620;28;20341;-64
2021/01/11 05:09:25;;;;;;;2.65;0.82;;;26.30;57.40;;;;;;4120043;28;20420;-61
2021/01/11 05:11:27;;;;;;;6.78;1.70;;;26.40;57.30;;;;;;4123981;28;20038;-63
2021/01/11 05:13:29;;;;;;;5.15;1.30;;;26.50;57.40;;;;;;4122044;28;20463;-66
2021/01/11 05:15:33;;;;;;;11.52;2.13;;;26.60;57.40;;;;;;4121299;28;20676;-62
2021/01/11 05:17:43;;;;;;;5.90;1.48;;;26.70;57.60;;;;;;4122156;28;20089;-63
2021/01/11 05:19:46;;;;;;;3.85;1.05;;;26.80;57.50;;;;;;4120975;28;20029;-62
2021/01/11 05:21:48;;;;;;;5.68;1.98;;;26.80;56.80;;;;;;4119753;28;20380;-63
2021/01/11 05:23:50;;;;;;;6.70;1.67;;;26.90;57.30;;;;;;4117926;28;20040;-63
2021/01/11 05:25:52;;;;;;;7.53;1.40;;;27.00;57.30;;;;;;4110404;28;20045;-61
2021/01/11 05:28:15;;;;;;;9.77;1.60;;;27.10;57.30;;;;;;4106722;28;20808;-62
2021/01/11 05:30:38;;;;;;;8.02;1.23;;;27.30;57.50;;;;;;4108896;28;20029;-63
2021/01/11 05:32:41;;;;;;;11.20;1.20;;;27.40;57.70;;;;;;4110667;28;20184;-64
2021/01/11 05:34:53;;;;;;;6.07;1.13;;;27.40;57.80;;;;;;4110165;28;20450;-61
2021/01/11 05:36:56;;;;;;;8.98;1.27;;;27.60;57.40;;;;;;4112851;28;20152;-61
2021/01/11 05:39:08;;;;;;;3.80;1.17;;;27.70;57.20;;;;;;4114921;28;20502;-62
2021/01/11 05:41:17;;;;;;;5.60;1.10;;;27.80;57.00;;;;;;4113439;28;20045;-60
2021/01/11 05:43:20;;;;;;;2.67;0.95;;;;;;;;;;4117738;28;20239;-59
2021/01/11 05:45:30;;;;;;;3.08;1.25;;;27.80;57.00;;;;;;4118952;28;20443;-62
2021/01/11 05:47:32;;;;;;;2.42;0.98;;;28.10;55.80;;;;;;4115771;28;20431;-61
2021/01/11 05:49:34;;;;;;;2.10;0.80;;;;;;;;;;4117329;28;20048;-63
2021/01/11 05:51:37;;;;;;;1.27;0.70;;;;;;;;;;4119862;28;20038;-63
2021/01/11 05:53:41;;;;;;;2.72;0.85;;;;;;;;;;4116352;28;21898;-62
2021/01/11 05:55:43;;;;;;;3.28;0.77;;;;;;;;;;4114629;28;20134;-62
2021/01/11 05:57:53;;;;;;;3.40;1.13;;;;;;;;;;4116554;28;20570;-63
2021/01/11 05:59:55;;;;;;;1.42;0.60;;;;;;;;;;4119559;28;20049;-63
2021/01/11 06:02:01;;;;;;;2.28;0.60;;;;;;;;;;4121985;28;20095;-64
2021/01/11 06:04:03;;;;;;;0.50;0.45;;;;;;;;;;4122546;28;20040;-63
2021/01/11 06:06:05;;;;;;;1.25;0.68;;;;;;;;;;4126947;28;20112;-61
2021/01/11 06:08:10;;;;;;;2.33;0.80;;;;;;;;;;4122986;28;20045;-61
2021/01/11 06:10:13;;;;;;;1.10;0.55;;;;;;;;;;4124642;28;20045;-64
2021/01/11 06:12:14;;;;;;;;;;;;;;;;;;4129354;28;20040;-60
2021/01/11 06:14:19;;;;;;;1.33;0.80;;;;;;;;;;4125335;28;20039;-60
2021/01/11 06:16:24;;;;;;;2.42;0.70;;;;;;;;;;4125147;28;20041;-62
2021/01/11 06:18:26;;;;;;;1.33;0.70;;;;;;;;;;4122750;28;20597;-65
2021/01/11 06:20:29;;;;;;;1.30;0.70;;;;;;;;;;4114937;28;20485;-62
2021/01/11 06:22:47;;;;;;;1.65;0.50;;;28.20;56.40;;;;;;4120102;28;20064;-62
2021/01/11 06:24:49;;;;;;;1.70;0.73;;;29.70;55.00;;;;;;4121793;28;20037;-63
2021/01/11 06:26:51;;;;;;;2.33;0.70;;;29.70;54.90;;;;;;4125590;28;20049;-63
2021/01/11 06:28:54;;;;;;;0.60;0.60;;;;;;;;;;4138206;28;20155;-62
2021/01/11 06:31:09;;;;;;;1.00;0.75;;;;;;;;;;4126688;28;20044;-63
2021/01/11 06:33:15;;;;;;;1.85;0.88;;;29.80;54.90;;;;;;4126990;28;20022;-64
2021/01/11 06:35:33;;;;;;;4.05;0.70;;;30.00;54.60;;;;;;4125846;28;20107;-65
2021/01/11 06:37:35;;;;;;;1.67;0.98;;;30.20;54.90;;;;;;4126565;28;20051;-61
2021/01/11 06:39:37;;;;;;;1.65;0.50;;;30.20;54.80;;;;;;4123597;28;20400;-61
2021/01/11 06:41:40;;;;;;;2.47;0.80;;;30.30;54.70;;;;;;4127118;28;20037;-62
2021/01/11 06:43:45;;;;;;;2.90;0.65;;;30.30;54.90;;;;;;4126232;28;20560;-62
2021/01/11 06:45:47;;;;;;;5.60;1.10;;;;;;;;;;4124733;28;20041;-62
2021/01/11 06:48:01;;;;;;;1.30;0.90;;;;;;;;;;4124362;28;21242;-61
2021/01/11 06:50:07;;;;;;;2.90;1.02;;;;;;;;;;4126405;28;20358;-63
2021/01/11 06:52:12;;;;;;;3.65;1.08;;;;;;;;;;4126750;28;20572;-62
2021/01/11 06:54:17;;;;;;;2.85;1.20;;;30.40;55.00;;;;;;4124134;28;20363;-61
2021/01/11 06:56:31;;;;;;;1.77;1.15;;;;;;;;;;4123461;28;20124;-62
2021/01/11 06:58:34;;;;;;;6.20;1.40;;;;;;;;;;4125096;28;20072;-62
2021/01/11 07:00:36;;;;;;;;;;;;;;;;;;4126824;28;20120;-63
2021/01/11 07:02:44;;;;;;;5.35;1.20;;;;;;;;;;4122070;28;20347;-63
2021/01/11 07:04:47;;;;;;;3.97;0.95;;;;;;;;;;4125034;28;21893;-62
2021/01/11 07:06:49;;;;;;;;;;;;;;;;;;4125447;28;20127;-62
2021/01/11 07:08:51;;;;;;;3.78;1.08;;;;;;;;;;4126203;28;21844;-62
2021/01/11 07:11:06;;;;;;;3.92;1.30;;;;;;;;;;4125404;28;20049;-64
2021/01/11 07:13:20;;;;;;;4.68;0.98;;;;;;;;;;4125958;28;20029;-63
2021/01/11 07:15:22;;;;;;;3.13;1.10;;;;;;;;;;4124330;28;20502;-63
2021/01/11 07:17:50;;;;;;;3.20;0.90;;;;;;;;;;4122177;28;20143;-65
2021/01/11 07:19:52;;;;;;;1.92;0.80;;;;;;;;;;4123262;28;20049;-68
2021/01/11 07:21:54;;;;;;;2.87;1.07;;;;;;;;;;4123125;28;20061;-65
2021/01/11 07:23:59;;;;;;;6.80;1.10;;;30.60;54.90;;;;;;4125378;28;20113;-68
2021/01/11 07:26:01;;;;;;;1.88;1.00;;;30.30;47.70;;;;;;4122333;28;20074;-62
2021/01/11 07:28:04;;;;;;;1.98;1.00;;;;;;;;;;4124284;28;20064;-62
2021/01/11 07:30:07;;;;;;;1.50;0.82;;;30.00;47.60;;;;;;4124774;28;20033;-62
2021/01/11 07:32:09;;;;;;;1.67;0.93;;;29.60;46.90;;;;;;4121945;28;20037;-62
2021/01/11 07:34:11;;;;;;;2.03;1.20;;;;;;;;;;4124928;28;20411;-61
2021/01/11 07:36:18;;;;;;;2.10;1.00;;;;;;;;;;4124875;28;20387;-60
2021/01/11 07:38:20;;;;;;;1.98;0.80;;;;;;;;;;4124842;28;20785;-63
2021/01/11 07:40:23;;;;;;;1.40;0.90;;;;;;;;;;4122019;28;20037;-65
2021/01/11 07:42:25;;;;;;;2.22;1.10;;;;;;;;;;4125105;28;20090;-63
2021/01/11 07:44:31;;;;;;;2.72;1.00;;;;;;;;;;4123644;28;20893;-60
2021/01/11 07:46:33;;;;;;;1.00;0.85;;;;;;;;;;4124391;28;20048;-60
2021/01/11 07:48:35;;;;;;;1.95;0.98;;;;;;;;;;4126740;28;20169;-63
2021/01/11 07:50:37;;;;;;;2.22;0.85;;;;;;;;;;4124955;28;20045;-59
2021/01/11 07:52:40;;;;;;;0.98;0.70;;;;;;;;;;4124502;28;20059;-60
2021/01/11 07:54:42;;;;;;;1.92;1.00;;;;;;;;;;4122101;28;20107;-56
2021/01/11 07:56:45;;;;;;;1.10;0.88;;;;;;;;;;4124647;28;20041;-61
2021/01/11 07:58:52;;;;;;;3.45;1.20;;;;;;;;;;4124697;28;20186;-57
2021/01/11 08:01:01;;;;;;;6.10;1.40;;;;;;;;;;4125758;28;20049;-64
2021/01/11 08:03:04;;;;;;;2.67;1.08;;;;;;;;;;4125372;28;20499;-61
2021/01/11 08:05:06;;;;;;;3.65;1.05;;;;;;;;;;4125717;28;20044;-64
2021/01/11 08:07:12;;;;;;;2.50;1.35;;;;;;;;;;4116936;28;20081;-61
2021/01/11 08:09:15;;;;;;;1.95;0.98;;;;;;;;;;4125354;28;20024;-61
2021/01/11 08:11:18;;;;;;;2.33;1.20;;;29.40;46.80;;;;;;4121467;28;20068;-65
2021/01/11 08:13:22;;;;;;;2.92;1.50;;;26.60;47.80;;;;;;4123988;28;20775;-58
2021/01/11 08:15:24;;;;;;;3.17;1.40;;;26.40;47.90;;;;;;4125207;28;20078;-63
2021/01/11 08:17:27;;;;;;;2.53;1.48;;;;;;;;;;4122370;28;20057;-61
2021/01/11 08:19:29;;;;;;;3.65;1.63;;;26.30;47.80;;;;;;4138231;28;20140;-61
2021/01/11 08:21:31;;;;;;;3.33;1.50;;;26.10;48.30;;;;;;4123441;28;20120;-61
2021/01/11 08:23:34;;;;;;;4.22;1.65;;;;;;;;;;4121932;28;20398;-59
2021/01/11 08:25:37;;;;;;;4.60;2.20;;;26.00;48.10;;;;;;4122149;28;20128;-57
2021/01/11 08:27:49;;;;;;;3.97;1.80;;;25.80;48.50;;;;;;4125040;28;20195;-64
2021/01/11 08:29:51;;;;;;;4.85;1.83;;;;;;;;;;4123956;28;20103;-63
2021/01/11 08:31:55;;;;;;;3.50;2.00;;;25.70;48.50;;;;;;4124935;28;20142;-62
2021/01/11 08:33:58;;;;;;;3.95;1.90;;;25.50;48.50;;;;;;4127720;28;20374;-60
2021/01/11 08:36:16;;;;;;;4.57;2.08;;;;;;;;;;4127009;28;20052;-62
2021/01/11 08:38:18;;;;;;;3.65;1.83;;;;;;;;;;4127856;28;20911;-61
2021/01/11 08:40:32;;;;;;;3.75;2.00;;;;;;;;;;4126881;28;20091;-62
2021/01/11 08:45:31;;;;;;;2.95;1.60;;;;;;;;;;4121559;28;21751;-61
2021/01/11 08:47:37;;;;;;;3.85;2.03;;;;;;;;;;4119843;28;20477;-62
2021/01/11 08:49:56;;;;;;;3.40;1.65;;;;;;;;;;4121200;28;20045;-61
2021/01/11 08:52:12;;;;;;;3.80;1.77;;;25.50;48.40;;;;;;4120427;28;20025;-62
2021/01/11 08:54:30;;;;;;;3.20;1.80;;;;;;;;;;4120825;28;20076;-61
2021/01/11 08:56:35;;;;;;;3.90;1.80;;;25.40;51.00;;;;;;4115738;28;20253;-61
2021/01/11 08:58:52;;;;;;;4.70;1.88;;;25.50;51.40;;;;;;4117210;28;20045;-62
2021/01/11 09:01:17;;;;;;;3.25;1.88;;;25.60;51.50;;;;;;4120108;28;20269;-60
2021/01/11 09:03:44;;;;;;;3.60;1.70;;;25.70;51.80;;;;;;4121319;28;20780;-61
2021/01/11 09:05:46;;;;;;;3.22;1.88;;;25.70;51.90;;;;;;4120389;28;20482;-62
2021/01/11 09:07:49;;;;;;;5.75;1.70;;;25.80;52.10;;;;;;4117461;28;20038;-61
2021/01/11 09:09:52;;;;;;;4.68;1.75;;;25.90;52.20;;;;;;4112106;28;20700;-61
2021/01/11 09:12:02;;;;;;;4.90;2.00;;;25.90;52.30;;;;;;4120386;23;20077;-64
2021/01/11 09:14:18;;;;;;;3.97;1.90;;;26.00;52.30;;;;;;4106420;28;20048;-66
2021/01/11 09:16:20;;;;;;;4.35;1.83;;;26.00;52.30;;;;;;4104795;28;20049;-65
2021/01/11 09:18:26;;;;;;;3.95;1.88;;;26.10;52.50;;;;;;4109105;28;21728;-65
2021/01/11 09:20:29;;;;;;;4.85;1.83;;;26.20;52.70;;;;;;4105948;28;20049;-65
2021/01/11 09:22:41;;;;;;;3.70;1.63;;;26.20;52.60;;;;;;4107500;28;20627;-66
2021/01/11 09:24:44;;;;;;;3.00;1.63;;;26.20;52.60;;;;;;4103835;28;20152;-64
2021/01/11 09:26:47;;;;;;;3.78;1.70;;;26.30;52.50;;;;;;4107647;28;20482;-66
2021/01/11 09:28:49;;;;;;;3.60;2.07;;;26.40;52.80;;;;;;4107503;28;20042;-65
2021/01/11 09:30:53;;;;;;;4.43;2.10;;;26.40;52.80;;;;;;4106164;28;20049;-64
2021/01/11 09:32:55;;;;;;;4.38;2.00;;;26.40;52.90;;;;;;4103848;28;20125;-68
2021/01/11 09:34:57;;;;;;;3.58;2.30;;;26.50;52.90;;;;;;4108779;28;20049;-67
2021/01/11 09:36:59;;;;;;;3.85;1.88;;;26.50;53.00;;;;;;4109270;28;20026;-67
2021/01/11 09:39:03;;;;;;;4.60;2.17;;;26.60;52.90;;;;;;4112493;28;20034;-65
2021/01/11 09:41:05;;;;;;;5.90;2.25;;;26.60;53.00;;;;;;4112020;28;20108;-68
2021/01/11 09:43:08;;;;;;;4.70;1.83;;;26.60;53.00;;;;;;4110820;28;20143;-66
2021/01/11 09:45:11;;;;;;;5.13;2.00;;;26.70;53.00;;;;;;4114959;28;20030;-68
2021/01/11 09:47:14;;;;;;;4.80;1.67;;;26.70;53.10;;;;;;4114331;28;20077;-67
2021/01/11 09:49:17;;;;;;;6.30;2.13;;;26.70;53.10;;;;;;4118166;28;20033;-65
2021/01/11 09:51:18;;;;;;;;;;;26.80;53.40;;;;;;4116608;28;20049;-64
2021/01/11 09:53:21;;;;;;;6.38;2.05;;;26.80;53.70;;;;;;4115848;28;20386;-65
2021/01/11 09:55:23;;;;;;;4.47;2.17;;;26.80;54.00;;;;;;4114302;28;20398;-67
2021/01/11 09:57:25;;;;;;;5.35;1.92;;;26.80;54.30;;;;;;4117361;28;20112;-65
2021/01/11 09:59:28;;;;;;;5.53;2.70;;;26.80;54.20;;;;;;4114070;28;20112;-66
2021/01/11 10:01:40;;;;;;;9.40;2.83;;;26.90;54.30;;;;;;4114981;28;20069;-64
2021/01/11 10:03:43;;;;;;;9.80;2.75;;;26.90;56.80;;;;;;4116072;28;20394;-62
2021/01/11 10:05:45;;;;;;;15.30;2.80;;;27.00;56.20;;;;;;4113431;28;20034;-61
2021/01/11 10:07:47;;;;;;;6.70;2.40;;;27.00;56.60;;;;;;4113979;28;20452;-61
2021/01/11 10:09:49;;;;;;;10.70;2.42;;;27.00;56.90;;;;;;4114978;28;21092;-63
2021/01/11 10:11:56;;;;;;;13.25;2.83;;;27.00;57.00;;;;;;4110791;28;20062;-67
2021/01/11 10:13:58;;;;;;;13.32;2.42;;;27.00;57.50;;;;;;4108197;28;20368;-66
2021/01/11 10:16:03;;;;;;;5.60;2.05;;;27.00;57.40;;;;;;4111132;28;20038;-68
2021/01/11 10:18:05;;;;;;;10.82;2.00;;;27.00;57.70;;;;;;4111618;28;20190;-67
2021/01/11 10:20:09;;;;;;;6.88;2.05;;;27.10;57.60;;;;;;4110648;28;20105;-69
2021/01/11 10:22:11;;;;;;;5.47;1.77;;;27.10;57.70;;;;;;4109333;28;20034;-64
2021/01/11 10:24:14;;;;;;;5.45;2.00;;;27.10;57.90;;;;;;4114926;28;20065;-64
2021/01/11 10:26:18;;;;;;;3.83;1.65;;;27.10;57.90;;;;;;4109354;28;20054;-58
2021/01/11 10:28:20;;;;;;;7.40;1.83;;;;;;;;;;4107884;28;20119;-59
2021/01/11 10:30:22;;;;;;;4.57;1.38;;;;;;;;;;4111335;28;20053;-60
2021/01/11 10:32:25;;;;;;;5.05;1.35;;;27.10;58.00;;;;;;4111733;28;20490;-62
2021/01/11 10:34:27;;;;;;;6.13;1.60;;;27.10;57.90;;;;;;4110709;28;20053;-60
2021/01/11 10:36:35;;;;;;;4.25;1.80;;;27.20;58.20;;;;;;4112346;28;20044;-61
2021/01/11 10:38:37;;;;;;;7.65;1.83;;;27.20;57.90;;;;;;4110693;28;20414;-54
2021/01/11 10:40:39;;;;;;;9.25;2.00;;;;;;;;;;4108803;28;20038;-58
2021/01/11 10:42:41;;;;;;;3.03;1.70;;;;;;;;;;4113803;28;20855;-59
2021/01/11 10:44:43;;;;;;;7.05;2.03;;;;;;;;;;4108311;28;20128;-62
2021/01/11 10:46:45;;;;;;;4.65;1.60;;;;;;;;;;4109880;28;20052;-60
2021/01/11 10:48:47;;;;;;;5.32;1.80;;;;;;;;;;4108369;28;20026;-64
2021/01/11 10:50:50;;;;;;;5.60;1.40;;;;;;;;;;4111320;28;20129;-59
2021/01/11 10:52:52;;;;;;;3.58;1.50;;;;;;;;;;4108429;28;20049;-59
2021/01/11 10:54:54;;;;;;;8.25;1.80;;;27.20;58.00;;;;;;4111335;28;20523;-61
2021/01/11 10:56:56;;;;;;;6.57;1.80;;;27.40;59.00;;;;;;4107926;28;20030;-55
2021/01/11 10:58:59;;;;;;;23.97;3.07;;;27.40;59.10;;;;;;4112177;28;20046;-60
2021/01/11 11:01:04;;;;;;;39.70;4.73;;;;;;;;;;4110865;28;20700;-60
2021/01/11 11:03:09;;;;;;;41.33;4.47;;;;;;;;;;4112229;28;20295;-60
2021/01/11 11:05:14;;;;;;;15.95;3.40;;;;;;;;;;4110667;28;20037;-60
2021/01/11 11:07:16;;;;;;;14.23;3.22;;;;;;;;;;4110680;28;20537;-61
2021/01/11 11:09:18;;;;;;;17.98;2.97;;;;;;;;;;4113560;28;20026;-61
2021/01/11 11:11:21;;;;;;;22.48;3.03;;;;;;;;;;4105675;28;20042;-62
2021/01/11 11:13:23;;;;;;;15.75;2.38;;;;;;;;;;4108933;28;20138;-58
2021/01/11 11:15:25;;;;;;;15.50;2.80;;;;;;;;;;4109868;28;20042;-59
2021/01/11 11:17:33;;;;;;;16.40;2.30;;;;;;;;;;4108163;28;20401;-61
2021/01/11 11:19:35;;;;;;;16.05;2.75;;;;;;;;;;4109076;28;20046;-61
2021/01/11 11:21:37;;;;;;;21.55;2.95;;;;;;;;;;4112224;28;20033;-59
2021/01/11 11:23:40;;;;;;;22.50;2.95;;;;;;;;;;4108177;28;20147;-60
2021/01/11 11:25:45;;;;;;;11.88;2.20;;;;;;;;;;4109217;28;20054;-58